sensor_id;sensor_type;location;lat;lon;timestamp;pressure;altitude;pressure_sealevel;temperature;humidity
27864;BME280;15980;51.092;13.916;2023-04-25T00:03:42;97822.19;;;8.33;74.14
27864;BME280;15980;51.092;13.916;2023-04-25T00:13:42;97812.38;;;8.32;75.48
27864;BME280;15980;51.092;13.916;2023-04-25T00:23:42;97809.72;;;8.47;74.93
27864;BME280;15980;51.092;13.916;2023-04-25T00:33:42;97811.31;;;8.48;74.91
27864;BME280;15980;51.092;13.916;2023-04-25T00:43:44;97816.88;;;8.52;74.89
27864;BME280;15980;51.092;13.916;2023-04-25T00:53:45;97815.13;;;8.32;76.04
27864;BME280;15980;51.092;13.916;2023-04-25T01:03:46;97806.72;;;8.12;77.44
27864;BME280;15980;51.092;13.916;2023-04-25T01:13:46;97802.13;;;7.76;79.30
27864;BME280;15980;51.092;13.916;2023-04-25T01:23:47;97815.91;;;7.55;80.22
27864;BME280;15980;51.092;13.916;2023-04-25T01:33:47;97808.41;;;7.28;81.03
27864;BME280;15980;51.092;13.916;2023-04-25T01:43:47;97810.09;;;7.08;81.76
27864;BME280;15980;51.092;13.916;2023-04-25T01:53:48;97809.28;;;6.96;83.16
27864;BME280;15980;51.092;13.916;2023-04-25T02:03:48;97800.59;;;6.81;83.05
27864;BME280;15980;51.092;13.916;2023-04-25T02:13:49;97801.69;;;6.68;83.41
27864;BME280;15980;51.092;13.916;2023-04-25T02:23:49;97808.13;;;6.51;82.78
27864;BME280;15980;51.092;13.916;2023-04-25T02:33:49;97801.28;;;6.45;83.38
27864;BME280;15980;51.092;13.916;2023-04-25T02:43:49;97796.63;;;6.46;83.42
27864;BME280;15980;51.092;13.916;2023-04-25T02:53:50;97808.72;;;6.36;82.69
27864;BME280;15980;51.092;13.916;2023-04-25T03:03:50;97798.53;;;6.12;83.16
27864;BME280;15980;51.092;13.916;2023-04-25T03:13:50;97790.94;;;5.97;83.55
27864;BME280;15980;51.092;13.916;2023-04-25T03:23:51;97786.66;;;5.87;83.76
27864;BME280;15980;51.092;13.916;2023-04-25T03:33:51;97798.94;;;5.73;83.85
27864;BME280;15980;51.092;13.916;2023-04-25T03:43:51;97789.25;;;5.84;83.99
27864;BME280;15980;51.092;13.916;2023-04-25T03:53:52;97792.16;;;5.79;84.36
27864;BME280;15980;51.092;13.916;2023-04-25T04:03:52;97807.63;;;5.87;84.29
27864;BME280;15980;51.092;13.916;2023-04-25T04:13:52;97800.22;;;5.96;83.65
27864;BME280;15980;51.092;13.916;2023-04-25T04:23:53;97792.88;;;6.17;82.83
27864;BME280;15980;51.092;13.916;2023-04-25T04:33:53;97807.78;;;6.53;81.08
27864;BME280;15980;51.092;13.916;2023-04-25T04:43:53;97822.59;;;6.64;80.03
27864;BME280;15980;51.092;13.916;2023-04-25T04:53:54;97824.47;;;6.51;80.30
27864;BME280;15980;51.092;13.916;2023-04-25T05:03:54;97826.03;;;6.73;81.30
27864;BME280;15980;51.092;13.916;2023-04-25T05:13:54;97829.50;;;6.95;80.45
27864;BME280;15980;51.092;13.916;2023-04-25T05:23:55;97835.69;;;7.16;78.36
27864;BME280;15980;51.092;13.916;2023-04-25T05:33:55;97834.66;;;7.33;75.17
27864;BME280;15980;51.092;13.916;2023-04-25T05:43:55;97827.53;;;7.52;73.47
27864;BME280;15980;51.092;13.916;2023-04-25T05:53:55;97829.22;;;7.57;71.08
27864;BME280;15980;51.092;13.916;2023-04-25T06:03:56;97834.22;;;7.79;69.30
27864;BME280;15980;51.092;13.916;2023-04-25T06:13:56;97842.59;;;8.11;68.91
27864;BME280;15980;51.092;13.916;2023-04-25T06:23:56;97832.13;;;8.25;67.19
27864;BME280;15980;51.092;13.916;2023-04-25T06:33:57;97836.47;;;8.54;65.95
27864;BME280;15980;51.092;13.916;2023-04-25T06:43:57;97851.31;;;8.81;63.89
27864;BME280;15980;51.092;13.916;2023-04-25T06:53:57;97843.34;;;8.76;62.99
27864;BME280;15980;51.092;13.916;2023-04-25T07:03:58;97844.34;;;8.99;63.31
27864;BME280;15980;51.092;13.916;2023-04-25T07:13:58;97842.72;;;9.26;61.55
27864;BME280;15980;51.092;13.916;2023-04-25T07:23:58;97846.88;;;9.52;59.64
27864;BME280;15980;51.092;13.916;2023-04-25T07:33:58;97853.66;;;9.89;59.04
27864;BME280;15980;51.092;13.916;2023-04-25T07:43:59;97863.75;;;9.38;58.74
27864;BME280;15980;51.092;13.916;2023-04-25T07:53:59;97853.63;;;10.21;58.19
27864;BME280;15980;51.092;13.916;2023-04-25T08:03:59;97860.75;;;10.41;56.31
27864;BME280;15980;51.092;13.916;2023-04-25T08:14:00;97859.97;;;11.67;52.77
27864;BME280;15980;51.092;13.916;2023-04-25T08:24:00;97871.84;;;11.71;52.92
27864;BME280;15980;51.092;13.916;2023-04-25T08:34:00;97872.69;;;11.29;53.41
27864;BME280;15980;51.092;13.916;2023-04-25T08:44:03;97883.31;;;11.12;54.39
27864;BME280;15980;51.092;13.916;2023-04-25T08:54:09;97903.13;;;11.01;55.24
27864;BME280;15980;51.092;13.916;2023-04-25T09:04:12;97904.41;;;11.08;55.14
27864;BME280;15980;51.092;13.916;2023-04-25T09:24:15;97921.44;;;11.36;54.17
27864;BME280;15980;51.092;13.916;2023-04-25T09:34:15;97929.50;;;10.87;56.05
27864;BME280;15980;51.092;13.916;2023-04-25T09:44:23;97933.09;;;11.29;54.82
27864;BME280;15980;51.092;13.916;2023-04-25T09:54:24;97948.97;;;10.62;58.53
27864;BME280;15980;51.092;13.916;2023-04-25T10:04:28;97964.91;;;10.57;57.85
27864;BME280;15980;51.092;13.916;2023-04-25T10:14:34;97955.44;;;11.09;56.82
27864;BME280;15980;51.092;13.916;2023-04-25T10:24:38;97963.56;;;11.24;55.26
27864;BME280;15980;51.092;13.916;2023-04-25T10:34:43;97975.94;;;11.15;52.73
27864;BME280;15980;51.092;13.916;2023-04-25T10:45:01;97975.97;;;11.57;53.92
27864;BME280;15980;51.092;13.916;2023-04-25T10:55:03;97977.09;;;11.14;56.09
27864;BME280;15980;51.092;13.916;2023-04-25T11:05:04;97977.47;;;11.12;55.98
27864;BME280;15980;51.092;13.916;2023-04-25T11:15:06;97982.63;;;10.12;60.21
27864;BME280;15980;51.092;13.916;2023-04-25T11:25:11;98010.19;;;9.44;65.22
27864;BME280;15980;51.092;13.916;2023-04-25T11:35:11;98027.81;;;9.31;68.63
27864;BME280;15980;51.092;13.916;2023-04-25T11:45:13;98030.75;;;10.41;66.71
27864;BME280;15980;51.092;13.916;2023-04-25T11:55:17;98046.75;;;10.39;61.98
27864;BME280;15980;51.092;13.916;2023-04-25T12:05:17;98047.75;;;11.17;58.57
27864;BME280;15980;51.092;13.916;2023-04-25T12:15:23;98036.16;;;11.81;56.11
27864;BME280;15980;51.092;13.916;2023-04-25T12:25:53;98036.72;;;11.52;54.80
27864;BME280;15980;51.092;13.916;2023-04-25T12:35:54;98052.22;;;10.07;58.71
27864;BME280;15980;51.092;13.916;2023-04-25T12:45:56;98080.84;;;9.66;60.13
27864;BME280;15980;51.092;13.916;2023-04-25T12:55:56;98051.31;;;10.82;58.38
27864;BME280;15980;51.092;13.916;2023-04-25T13:05:56;98060.19;;;11.69;54.85
27864;BME280;15980;51.092;13.916;2023-04-25T13:15:57;98070.78;;;10.93;55.06
27864;BME280;15980;51.092;13.916;2023-04-25T13:26:07;98085.56;;;9.82;57.15
27864;BME280;15980;51.092;13.916;2023-04-25T13:36:07;98080.47;;;10.24;55.72
27864;BME280;15980;51.092;13.916;2023-04-25T13:46:07;98095.88;;;10.60;54.51
27864;BME280;15980;51.092;13.916;2023-04-25T13:56:08;98099.66;;;10.39;53.45
27864;BME280;15980;51.092;13.916;2023-04-25T14:06:08;98122.19;;;9.89;52.72
27864;BME280;15980;51.092;13.916;2023-04-25T14:16:08;98123.00;;;10.33;53.57
27864;BME280;15980;51.092;13.916;2023-04-25T14:26:09;98127.19;;;10.75;51.63
27864;BME280;15980;51.092;13.916;2023-04-25T14:36:09;98125.34;;;10.47;52.48
27864;BME280;15980;51.092;13.916;2023-04-25T14:46:10;98129.56;;;10.92;52.36
27864;BME280;15980;51.092;13.916;2023-04-25T14:56:11;98136.75;;;11.31;51.41
27864;BME280;15980;51.092;13.916;2023-04-25T15:06:11;98142.63;;;10.35;51.40
27864;BME280;15980;51.092;13.916;2023-04-25T15:16:11;98142.59;;;10.63;51.78
27864;BME280;15980;51.092;13.916;2023-04-25T15:26:12;98158.59;;;10.18;49.32
27864;BME280;15980;51.092;13.916;2023-04-25T15:36:12;98172.44;;;9.81;47.81
27864;BME280;15980;51.092;13.916;2023-04-25T15:46:12;98165.78;;;9.94;47.36
27864;BME280;15980;51.092;13.916;2023-04-25T15:56:13;98165.31;;;9.92;47.83
27864;BME280;15980;51.092;13.916;2023-04-25T16:06:13;98186.75;;;9.74;49.15
27864;BME280;15980;51.092;13.916;2023-04-25T16:16:13;98179.91;;;9.68;49.09
27864;BME280;15980;51.092;13.916;2023-04-25T16:26:14;98181.47;;;9.82;48.58
27864;BME280;15980;51.092;13.916;2023-04-25T16:36:14;98185.41;;;9.96;47.46
27864;BME280;15980;51.092;13.916;2023-04-25T16:46:14;98193.84;;;10.03;46.63
27864;BME280;15980;51.092;13.916;2023-04-25T16:56:15;98213.38;;;9.62;44.93
27864;BME280;15980;51.092;13.916;2023-04-25T17:06:15;98231.66;;;9.21;43.78
27864;BME280;15980;51.092;13.916;2023-04-25T17:16:18;98234.38;;;8.97;44.00
27864;BME280;15980;51.092;13.916;2023-04-25T17:26:18;98237.56;;;8.87;46.12
27864;BME280;15980;51.092;13.916;2023-04-25T17:36:19;98249.81;;;9.13;46.35
27864;BME280;15980;51.092;13.916;2023-04-25T17:46:19;98251.00;;;8.67;47.04
27864;BME280;15980;51.092;13.916;2023-04-25T17:56:19;98276.91;;;8.28;48.23
27864;BME280;15980;51.092;13.916;2023-04-25T18:06:19;98292.97;;;7.88;49.76
27864;BME280;15980;51.092;13.916;2023-04-25T18:16:20;98296.19;;;7.61;50.37
27864;BME280;15980;51.092;13.916;2023-04-25T18:26:21;98291.63;;;7.44;50.47
27864;BME280;15980;51.092;13.916;2023-04-25T18:36:21;98306.28;;;7.39;51.62
27864;BME280;15980;51.092;13.916;2023-04-25T18:46:21;98320.69;;;7.48;51.62
27864;BME280;15980;51.092;13.916;2023-04-25T18:56:22;98338.28;;;7.60;51.28
27864;BME280;15980;51.092;13.916;2023-04-25T19:06:24;98345.34;;;7.22;52.78
27864;BME280;15980;51.092;13.916;2023-04-25T19:16:25;98353.28;;;6.89;54.32
27864;BME280;15980;51.092;13.916;2023-04-25T19:26:25;98357.19;;;6.71;55.78
27864;BME280;15980;51.092;13.916;2023-04-25T19:36:25;98368.09;;;6.63;56.84
27864;BME280;15980;51.092;13.916;2023-04-25T19:46:26;98369.38;;;6.48;57.89
27864;BME280;15980;51.092;13.916;2023-04-25T19:56:26;98372.41;;;6.29;59.67
27864;BME280;15980;51.092;13.916;2023-04-25T20:06:26;98373.50;;;6.02;60.07
27864;BME280;15980;51.092;13.916;2023-04-25T20:16:27;98380.00;;;5.84;61.85
27864;BME280;15980;51.092;13.916;2023-04-25T20:26:27;98391.28;;;5.60;63.27
27864;BME280;15980;51.092;13.916;2023-04-25T20:36:28;98397.09;;;5.67;62.46
27864;BME280;15980;51.092;13.916;2023-04-25T20:46:29;98399.13;;;5.61;62.37
27864;BME280;15980;51.092;13.916;2023-04-25T20:56:29;98396.38;;;5.53;62.49
27864;BME280;15980;51.092;13.916;2023-04-25T21:06:29;98396.84;;;5.46;63.22
27864;BME280;15980;51.092;13.916;2023-04-25T21:16:30;98406.53;;;5.30;63.02
27864;BME280;15980;51.092;13.916;2023-04-25T21:26:30;98406.53;;;5.30;63.53
27864;BME280;15980;51.092;13.916;2023-04-25T21:36:30;98414.41;;;5.31;63.49
27864;BME280;15980;51.092;13.916;2023-04-25T21:46:31;98404.94;;;5.29;63.41
27864;BME280;15980;51.092;13.916;2023-04-25T21:56:31;98412.00;;;5.30;64.10
27864;BME280;15980;51.092;13.916;2023-04-25T22:06:32;98420.63;;;5.32;64.45
27864;BME280;15980;51.092;13.916;2023-04-25T22:16:32;98431.81;;;5.61;64.37
27864;BME280;15980;51.092;13.916;2023-04-25T22:26:33;98438.44;;;5.78;64.42
27864;BME280;15980;51.092;13.916;2023-04-25T22:36:33;98446.16;;;5.84;63.77
27864;BME280;15980;51.092;13.916;2023-04-25T22:46:34;98468.16;;;5.96;64.61
27864;BME280;15980;51.092;13.916;2023-04-25T22:56:34;98462.88;;;5.91;64.45
27864;BME280;15980;51.092;13.916;2023-04-25T23:06:34;98464.69;;;5.74;65.55
27864;BME280;15980;51.092;13.916;2023-04-25T23:16:34;98471.41;;;5.67;66.11
27864;BME280;15980;51.092;13.916;2023-04-25T23:26:35;98469.03;;;5.75;66.18
27864;BME280;15980;51.092;13.916;2023-04-25T23:36:35;98476.84;;;5.67;67.53
27864;BME280;15980;51.092;13.916;2023-04-25T23:46:35;98485.69;;;5.73;68.13
27864;BME280;15980;51.092;13.916;2023-04-25T23:56:36;98496.75;;;5.77;68.68
